createdAt,value
2023-05-19T00:00:30.767Z,101746.00
2023-05-19T00:01:37.544Z,101745.38
2023-05-19T00:02:40.090Z,101748.78
2023-05-19T00:03:52.800Z,101744.69
2023-05-19T00:04:55.242Z,101748.28
2023-05-19T00:05:59.032Z,101750.63
2023-05-19T00:07:03.263Z,101750.28
2023-05-19T00:08:05.894Z,101749.22
2023-05-19T00:09:10.285Z,101748.38
2023-05-19T00:10:13.031Z,101749.84
2023-05-19T00:11:15.400Z,101748.22
2023-05-19T00:12:18.061Z,101739.03
2023-05-19T00:13:21.490Z,101746.38
2023-05-19T00:14:24.297Z,101742.72
2023-05-19T00:15:26.891Z,101743.81
2023-05-19T00:16:30.931Z,101733.97
2023-05-19T00:17:34.491Z,101740.28
2023-05-19T00:18:36.973Z,101745.72
2023-05-19T00:19:39.690Z,101743.69
2023-05-19T00:20:42.544Z,101736.63
2023-05-19T00:21:44.753Z,101728.75
2023-05-19T00:22:46.965Z,101730.28
2023-05-19T00:23:49.256Z,101734.00
2023-05-19T00:24:51.483Z,101732.25
2023-05-19T00:25:54.166Z,101733.44
2023-05-19T00:26:56.637Z,101735.41
2023-05-19T00:27:59.285Z,101742.03
2023-05-19T00:29:02.024Z,101733.19
2023-05-19T00:30:05.160Z,101738.63
2023-05-19T00:31:07.536Z,101739.41
2023-05-19T00:32:10.342Z,101745.84
2023-05-19T00:33:12.733Z,101743.84
2023-05-19T00:34:15.284Z,101743.34
2023-05-19T00:35:17.594Z,101743.34
2023-05-19T00:36:19.915Z,101740.88
2023-05-19T00:37:23.287Z,101741.63
2023-05-19T00:38:25.796Z,101751.00
2023-05-19T00:39:28.245Z,101747.31
2023-05-19T00:40:32.200Z,101746.19
2023-05-19T00:41:35.171Z,101742.81
2023-05-19T00:42:38.401Z,101747.31
2023-05-19T00:43:40.823Z,101745.28
2023-05-19T00:44:43.295Z,101747.34
2023-05-19T00:45:46.957Z,101747.22
2023-05-19T00:46:49.492Z,101750.19
2023-05-19T00:47:51.834Z,101745.22
2023-05-19T00:48:54.135Z,101747.81
2023-05-19T00:49:56.777Z,101744.13
2023-05-19T00:51:04.744Z,101746.78
2023-05-19T00:52:07.553Z,101746.25
2023-05-19T00:53:09.842Z,101750.72
2023-05-19T00:54:12.172Z,101750.81
2023-05-19T00:55:15.540Z,101750.53
2023-05-19T00:56:18.933Z,101753.25
2023-05-19T00:57:21.967Z,101746.19
2023-05-19T00:58:29.125Z,101747.81
2023-05-19T00:59:31.384Z,101755.16
2023-05-19T01:00:34.497Z,101757.22
2023-05-19T01:01:37.251Z,101752.03
2023-05-19T01:02:41.657Z,101758.50
2023-05-19T01:03:44.441Z,101748.00
2023-05-19T01:04:47.834Z,101754.94
2023-05-19T01:05:53.624Z,101752.50
2023-05-19T01:06:56.673Z,101754.97
2023-05-19T01:07:59.323Z,101748.84
2023-05-19T01:09:01.543Z,101747.25
2023-05-19T01:10:04.779Z,101749.38
2023-05-19T01:11:08.145Z,101749.41
2023-05-19T01:12:10.660Z,101754.81
2023-05-19T01:13:12.964Z,101753.13
2023-05-19T01:14:17.915Z,101755.22
2023-05-19T01:15:20.638Z,101750.75
2023-05-19T01:16:47.310Z,101746.41
2023-05-19T01:17:58.968Z,101753.56
2023-05-19T01:19:31.060Z,101748.91
2023-05-19T01:20:40.293Z,101744.59
2023-05-19T01:22:13.207Z,101749.00
2023-05-19T01:23:24.261Z,101745.53
2023-05-19T01:24:45.357Z,101746.44
2023-05-19T01:26:10.266Z,101751.75
2023-05-19T01:27:31.165Z,101748.13
2023-05-19T01:28:54.414Z,101747.19
2023-05-19T01:30:17.572Z,101745.41
2023-05-19T01:31:23.915Z,101743.56
2023-05-19T01:32:27.532Z,101746.06
2023-05-19T01:33:32.660Z,101738.78
2023-05-19T01:34:39.024Z,101745.88
2023-05-19T01:35:43.254Z,101744.84
2023-05-19T01:36:49.842Z,101741.16
2023-05-19T01:37:57.162Z,101736.69
2023-05-19T01:39:02.143Z,101748.03
2023-05-19T01:40:08.069Z,101749.00
2023-05-19T01:41:12.011Z,101749.09
2023-05-19T01:42:15.276Z,101745.47
2023-05-19T01:43:20.491Z,101735.63
2023-05-19T01:44:23.874Z,101738.31
2023-05-19T01:45:28.939Z,101746.34
2023-05-19T01:46:31.481Z,101750.03
2023-05-19T01:47:38.365Z,101742.88
2023-05-19T01:48:43.000Z,101740.97
2023-05-19T01:49:45.223Z,101746.97
2023-05-19T01:50:47.699Z,101749.72
2023-05-19T01:51:51.165Z,101737.97
2023-05-19T01:52:53.890Z,101734.44
2023-05-19T01:53:56.414Z,101742.31
2023-05-19T01:54:58.638Z,101742.31
2023-05-19T01:56:01.410Z,101748.44
2023-05-19T01:57:15.659Z,101745.75
2023-05-19T01:58:21.348Z,101746.81
2023-05-19T01:59:42.092Z,101747.56
2023-05-19T02:01:14.799Z,101746.59
2023-05-19T02:02:33.715Z,101750.47
2023-05-19T02:04:14.241Z,101746.19
2023-05-19T02:05:33.942Z,101745.22
2023-05-19T02:06:38.956Z,101748.78
2023-05-19T02:07:52.437Z,101750.50
2023-05-19T02:09:04.255Z,101744.50
2023-05-19T02:10:12.861Z,101745.25
2023-05-19T02:11:27.627Z,101744.25
2023-05-19T02:12:38.910Z,101735.00
2023-05-19T02:13:44.400Z,101746.31
2023-05-19T02:15:14.267Z,101744.13
2023-05-19T02:16:17.627Z,101748.63
2023-05-19T02:17:20.692Z,101738.09
2023-05-19T02:18:25.119Z,101744.13
2023-05-19T02:19:32.329Z,101744.78
2023-05-19T02:20:34.717Z,101742.72
2023-05-19T02:21:37.267Z,101749.91
2023-05-19T02:22:39.903Z,101740.06
2023-05-19T02:23:42.440Z,101741.56
2023-05-19T02:24:46.575Z,101740.31
2023-05-19T02:25:48.933Z,101741.41
2023-05-19T02:26:52.336Z,101751.00
2023-05-19T02:27:54.950Z,101747.09
2023-05-19T02:28:57.132Z,101745.50
2023-05-19T02:30:00.403Z,101737.50
2023-05-19T02:31:06.361Z,101742.50
2023-05-19T02:32:09.020Z,101746.38
2023-05-19T02:33:11.508Z,101734.75
2023-05-19T02:34:13.758Z,101734.31
2023-05-19T02:35:16.531Z,101740.88
2023-05-19T02:36:19.172Z,101732.75
2023-05-19T02:37:23.837Z,101741.63
2023-05-19T02:38:26.386Z,101741.41
2023-05-19T02:39:31.226Z,101735.88
2023-05-19T02:40:33.721Z,101740.53
2023-05-19T02:41:36.137Z,101737.88
2023-05-19T02:42:38.392Z,101736.66
2023-05-19T02:43:41.223Z,101742.00
2023-05-19T02:44:43.626Z,101743.47
2023-05-19T02:45:47.575Z,101732.78
2023-05-19T02:46:50.054Z,101734.38
2023-05-19T02:47:52.418Z,101739.84
2023-05-19T02:48:55.642Z,101739.78
2023-05-19T02:49:58.028Z,101747.72
2023-05-19T02:51:00.275Z,101749.47
2023-05-19T02:52:03.557Z,101740.75
2023-05-19T02:53:05.864Z,101739.88
2023-05-19T02:54:08.113Z,101727.59
2023-05-19T02:55:17.128Z,101738.41
2023-05-19T02:56:19.438Z,101732.84
2023-05-19T02:57:21.865Z,101737.22
2023-05-19T02:58:24.322Z,101736.69
2023-05-19T02:59:26.716Z,101735.81
2023-05-19T03:00:29.149Z,101738.56
2023-05-19T03:01:32.716Z,101740.13
2023-05-19T03:02:35.477Z,101736.59
2023-05-19T03:03:37.978Z,101743.00
2023-05-19T03:04:42.415Z,101734.16
2023-05-19T03:05:44.888Z,101728.81
2023-05-19T03:06:47.135Z,101736.78
2023-05-19T03:07:49.443Z,101730.22
2023-05-19T03:08:51.701Z,101725.09
2023-05-19T03:09:54.476Z,101735.72
2023-05-19T03:10:56.892Z,101738.63
2023-05-19T03:12:03.911Z,101733.34
2023-05-19T03:13:06.403Z,101742.22
2023-05-19T03:14:13.671Z,101732.41
2023-05-19T03:15:16.621Z,101737.63
2023-05-19T03:16:19.098Z,101739.88
2023-05-19T03:17:21.453Z,101740.06
2023-05-19T03:18:24.796Z,101737.56
2023-05-19T03:19:27.684Z,101734.91
2023-05-19T03:20:30.896Z,101738.50
2023-05-19T03:21:34.530Z,101740.22
2023-05-19T03:22:36.901Z,101742.00
2023-05-19T03:23:39.125Z,101745.41
2023-05-19T03:24:42.157Z,101740.03
2023-05-19T03:25:44.594Z,101746.91
2023-05-19T03:26:47.805Z,101746.13
2023-05-19T03:27:50.504Z,101745.19
2023-05-19T03:28:52.821Z,101742.44
2023-05-19T03:29:55.547Z,101752.84
2023-05-19T03:30:59.329Z,101749.59
2023-05-19T03:32:05.592Z,101747.13
2023-05-19T03:33:08.275Z,101742.59
2023-05-19T03:34:10.562Z,101749.59
2023-05-19T03:35:12.768Z,101751.28
2023-05-19T03:36:15.498Z,101743.25
2023-05-19T03:37:17.844Z,101744.16
2023-05-19T03:38:20.889Z,101746.13
2023-05-19T03:39:31.503Z,101747.19
2023-05-19T03:40:34.193Z,101739.38
2023-05-19T03:41:43.149Z,101740.31
2023-05-19T03:42:46.892Z,101742.03
2023-05-19T03:43:49.189Z,101751.81
2023-05-19T03:44:51.884Z,101746.34
2023-05-19T03:45:54.423Z,101747.03
2023-05-19T03:47:27.794Z,101747.09
2023-05-19T03:48:52.985Z,101749.06
2023-05-19T03:50:31.695Z,101747.22
2023-05-19T03:51:47.919Z,101751.59
2023-05-19T03:53:01.124Z,101756.03
2023-05-19T03:54:06.229Z,101759.00
2023-05-19T03:55:08.884Z,101759.69
2023-05-19T03:56:14.190Z,101767.94
2023-05-19T03:57:16.635Z,101757.19
2023-05-19T03:58:18.961Z,101762.44
2023-05-19T03:59:21.311Z,101762.53
2023-05-19T04:00:23.922Z,101762.44
2023-05-19T04:01:26.460Z,101758.72
2023-05-19T04:02:28.987Z,101758.50
2023-05-19T04:03:31.620Z,101764.84
2023-05-19T04:04:34.008Z,101761.22
2023-05-19T04:05:36.273Z,101766.56
2023-05-19T04:06:38.723Z,101762.28
2023-05-19T04:07:41.858Z,101761.50
2023-05-19T04:08:44.332Z,101760.56
2023-05-19T04:09:48.696Z,101762.44
2023-05-19T04:10:50.912Z,101764.16
2023-05-19T04:11:53.340Z,101757.94
2023-05-19T04:12:56.006Z,101762.28
2023-05-19T04:13:58.240Z,101760.38
2023-05-19T04:15:00.624Z,101756.56
2023-05-19T04:16:03.203Z,101757.13
2023-05-19T04:17:05.586Z,101759.81
2023-05-19T04:18:09.071Z,101761.63
2023-05-19T04:19:11.617Z,101762.66
2023-05-19T04:20:13.966Z,101760.09
2023-05-19T04:21:16.400Z,101761.97
2023-05-19T04:22:18.661Z,101765.16
2023-05-19T04:23:21.189Z,101759.84
2023-05-19T04:24:23.477Z,101757.94
2023-05-19T04:25:28.149Z,101762.22
2023-05-19T04:26:31.062Z,101764.88
2023-05-19T04:27:36.698Z,101769.22
2023-05-19T04:28:42.524Z,101766.72
2023-05-19T04:29:46.133Z,101765.78
2023-05-19T04:30:48.712Z,101771.09
2023-05-19T04:31:51.059Z,101762.91
2023-05-19T04:32:53.897Z,101771.91
2023-05-19T04:33:56.435Z,101774.28
2023-05-19T04:34:58.952Z,101772.59
2023-05-19T04:36:08.387Z,101766.63
2023-05-19T04:37:16.281Z,101771.25
2023-05-19T04:38:20.267Z,101765.88
2023-05-19T04:39:24.255Z,101761.91
2023-05-19T04:40:27.672Z,101766.31
2023-05-19T04:41:30.053Z,101768.78
2023-05-19T04:42:33.072Z,101771.13
2023-05-19T04:43:37.199Z,101767.19
2023-05-19T04:44:40.298Z,101772.25
2023-05-19T04:45:42.750Z,101770.34
2023-05-19T04:46:47.529Z,101772.13
2023-05-19T04:47:49.844Z,101765.97
2023-05-19T04:48:53.395Z,101769.00
2023-05-19T04:49:55.812Z,101767.34
2023-05-19T04:50:58.813Z,101780.66
2023-05-19T04:52:01.624Z,101771.25
2023-05-19T04:53:05.714Z,101774.19
2023-05-19T04:54:08.695Z,101772.03
2023-05-19T04:55:11.636Z,101768.16
2023-05-19T04:56:15.593Z,101779.03
2023-05-19T04:57:20.057Z,101770.69
2023-05-19T04:58:25.794Z,101770.03
2023-05-19T04:59:28.856Z,101762.06
2023-05-19T05:00:31.779Z,101771.88
2023-05-19T05:01:40.883Z,101773.56
2023-05-19T05:02:46.037Z,101780.53
2023-05-19T05:03:49.488Z,101783.97
2023-05-19T05:04:54.558Z,101769.78
2023-05-19T05:05:58.616Z,101771.59
2023-05-19T05:07:01.284Z,101779.09
2023-05-19T05:08:04.325Z,101775.69
2023-05-19T05:09:16.672Z,101786.44
2023-05-19T05:10:19.376Z,101778.59
2023-05-19T05:11:22.772Z,101767.47
2023-05-19T05:12:25.650Z,101770.03
2023-05-19T05:13:28.183Z,101775.19
2023-05-19T05:14:31.111Z,101774.44
2023-05-19T05:15:33.590Z,101778.72
2023-05-19T05:16:38.358Z,101776.66
2023-05-19T05:17:42.137Z,101775.69
2023-05-19T05:18:45.105Z,101782.66
2023-05-19T05:19:48.840Z,101777.75
2023-05-19T05:20:51.602Z,101782.72
2023-05-19T05:21:54.978Z,101779.22
2023-05-19T05:22:57.969Z,101783.53
2023-05-19T05:24:02.105Z,101779.34
2023-05-19T05:25:08.297Z,101779.72
2023-05-19T05:26:18.657Z,101781.03
2023-05-19T05:27:23.405Z,101784.13
2023-05-19T05:28:25.863Z,101780.22
2023-05-19T05:29:29.387Z,101778.38
2023-05-19T05:30:31.655Z,101777.88
2023-05-19T05:31:34.159Z,101783.00
2023-05-19T05:32:37.549Z,101776.66
2023-05-19T05:33:46.111Z,101777.78
2023-05-19T05:34:51.027Z,101774.22
2023-05-19T05:35:53.373Z,101773.22
2023-05-19T05:36:55.973Z,101775.66
2023-05-19T05:37:58.656Z,101775.19
2023-05-19T05:39:02.441Z,101783.22
2023-05-19T05:40:07.056Z,101780.47
2023-05-19T05:41:10.250Z,101776.66
2023-05-19T05:42:13.228Z,101778.25
2023-05-19T05:43:16.120Z,101774.06
2023-05-19T05:44:23.894Z,101781.28
2023-05-19T05:45:26.698Z,101778.81
2023-05-19T05:46:30.393Z,101778.13
2023-05-19T05:47:33.329Z,101774.09
2023-05-19T05:48:36.508Z,101774.06
2023-05-19T05:49:40.430Z,101774.56
2023-05-19T05:50:44.673Z,101774.72
2023-05-19T05:51:57.965Z,101776.88
2023-05-19T05:53:10.106Z,101774.56
2023-05-19T05:54:17.802Z,101776.97
2023-05-19T05:55:21.957Z,101778.41
2023-05-19T05:56:24.556Z,101772.91
2023-05-19T05:57:30.715Z,101775.81
2023-05-19T05:58:35.781Z,101778.75
2023-05-19T05:59:40.691Z,101767.63
2023-05-19T06:00:44.060Z,101773.06
2023-05-19T06:01:46.330Z,101771.38
2023-05-19T06:02:51.280Z,101764.06
2023-05-19T06:03:54.720Z,101770.81
2023-05-19T06:04:59.452Z,101769.91
2023-05-19T06:06:02.145Z,101767.63
2023-05-19T06:07:05.211Z,101760.84
2023-05-19T06:08:10.901Z,101771.13
2023-05-19T06:09:13.318Z,101761.22
2023-05-19T06:10:16.859Z,101763.03
2023-05-19T06:11:19.859Z,101769.53
2023-05-19T06:12:23.088Z,101760.16
2023-05-19T06:13:26.084Z,101762.34
2023-05-19T06:14:28.706Z,101764.66
2023-05-19T06:15:52.548Z,101769.41
2023-05-19T06:16:59.772Z,101767.25
2023-05-19T06:18:04.192Z,101765.63
2023-05-19T06:19:06.804Z,101763.22
2023-05-19T06:20:10.233Z,101763.94
2023-05-19T06:21:13.746Z,101764.13
2023-05-19T06:22:17.696Z,101765.91
2023-05-19T06:23:20.187Z,101749.31
2023-05-19T06:24:22.724Z,101765.28
2023-05-19T06:25:25.820Z,101759.44
2023-05-19T06:26:28.826Z,101760.78
2023-05-19T06:27:33.250Z,101759.19
2023-05-19T06:28:36.934Z,101760.03
2023-05-19T06:29:40.341Z,101754.25
2023-05-19T06:30:44.415Z,101764.28
2023-05-19T06:31:55.438Z,101759.28
2023-05-19T06:32:57.721Z,101749.81
2023-05-19T06:34:01.374Z,101759.81
2023-05-19T06:35:04.574Z,101772.25
2023-05-19T06:36:08.509Z,101753.19
2023-05-19T06:37:11.496Z,101758.72
2023-05-19T06:38:13.787Z,101758.78
2023-05-19T06:39:16.164Z,101768.63
2023-05-19T06:40:18.809Z,101761.47
2023-05-19T06:41:21.943Z,101756.22
2023-05-19T06:42:26.771Z,101756.56
2023-05-19T06:43:38.870Z,101756.94
2023-05-19T06:44:41.090Z,101757.88
2023-05-19T06:45:47.110Z,101758.09
2023-05-19T06:46:49.685Z,101752.41
2023-05-19T06:47:52.157Z,101754.53
2023-05-19T06:48:54.804Z,101753.34
2023-05-19T06:49:59.625Z,101752.56
2023-05-19T06:51:05.878Z,101755.22
2023-05-19T06:52:09.576Z,101756.63
2023-05-19T06:53:12.008Z,101762.63
2023-05-19T06:54:16.326Z,101758.13
2023-05-19T06:55:19.182Z,101758.97
2023-05-19T06:56:22.949Z,101761.38
2023-05-19T06:57:26.352Z,101762.66
2023-05-19T06:58:28.648Z,101764.31
2023-05-19T06:59:33.028Z,101768.28
2023-05-19T07:00:36.143Z,101767.13
2023-05-19T07:01:40.934Z,101764.81
2023-05-19T07:02:43.850Z,101770.97
2023-05-19T07:03:46.801Z,101770.50
2023-05-19T07:04:52.664Z,101773.97
2023-05-19T07:05:55.676Z,101771.97
2023-05-19T07:06:58.688Z,101772.72
2023-05-19T07:08:01.923Z,101766.09
2023-05-19T07:09:05.585Z,101774.75
2023-05-19T07:10:08.643Z,101759.03
2023-05-19T07:11:12.392Z,101773.91
2023-05-19T07:12:16.593Z,101776.00
2023-05-19T07:13:19.123Z,101770.59
2023-05-19T07:14:21.899Z,101774.13
2023-05-19T07:15:24.168Z,101773.88
2023-05-19T07:16:26.682Z,101768.13
2023-05-19T07:17:30.953Z,101772.16
2023-05-19T07:18:34.461Z,101768.56
2023-05-19T07:19:36.911Z,101781.41
2023-05-19T07:20:39.236Z,101773.88
2023-05-19T07:21:42.471Z,101783.69
2023-05-19T07:22:45.189Z,101785.03
2023-05-19T07:23:47.415Z,101778.66
2023-05-19T07:24:50.256Z,101776.19
2023-05-19T07:25:56.694Z,101778.81
2023-05-19T07:26:59.096Z,101779.59
2023-05-19T07:28:01.536Z,101774.53
2023-05-19T07:29:03.831Z,101776.56
2023-05-19T07:30:06.673Z,101774.97
2023-05-19T07:31:09.721Z,101771.72
2023-05-19T07:32:12.047Z,101769.97
2023-05-19T07:33:14.628Z,101773.00
2023-05-19T07:34:16.889Z,101772.22
2023-05-19T07:35:20.632Z,101769.63
2023-05-19T07:36:23.187Z,101764.03
2023-05-19T07:37:26.404Z,101764.03
2023-05-19T07:38:29.084Z,101770.53
2023-05-19T07:39:32.390Z,101776.03
2023-05-19T07:40:34.770Z,101765.88
2023-05-19T07:41:37.144Z,101775.69
2023-05-19T07:42:39.692Z,101771.00
2023-05-19T07:43:42.953Z,101767.28
2023-05-19T07:44:45.164Z,101769.84
2023-05-19T07:45:47.605Z,101766.16
2023-05-19T07:46:49.874Z,101771.47
2023-05-19T07:47:54.094Z,101772.03
2023-05-19T07:48:56.388Z,101767.50
2023-05-19T07:49:58.639Z,101762.47
2023-05-19T07:51:01.726Z,101771.16
2023-05-19T07:52:04.065Z,101771.88
2023-05-19T07:53:06.536Z,101765.09
2023-05-19T07:54:08.897Z,101766.84
2023-05-19T07:55:11.707Z,101763.28
2023-05-19T07:56:13.965Z,101760.88
2023-05-19T07:57:16.686Z,101756.81
2023-05-19T07:58:20.029Z,101758.72
2023-05-19T07:59:22.336Z,101760.66
2023-05-19T08:00:25.014Z,101756.88
2023-05-19T08:01:28.320Z,101752.31
2023-05-19T08:02:30.964Z,101753.78
2023-05-19T08:03:34.088Z,101749.22
2023-05-19T08:04:36.666Z,101747.16
2023-05-19T08:05:39.346Z,101746.09
2023-05-19T08:06:45.609Z,101745.72
2023-05-19T08:07:48.133Z,101750.59
2023-05-19T08:08:50.533Z,101745.47
2023-05-19T08:09:52.798Z,101747.66
2023-05-19T08:10:55.281Z,101750.47
2023-05-19T08:11:57.978Z,101751.59
2023-05-19T08:13:00.246Z,101738.72
2023-05-19T08:14:03.022Z,101743.25
2023-05-19T08:15:05.892Z,101747.78
2023-05-19T08:16:08.425Z,101747.63
2023-05-19T08:17:11.132Z,101744.25
2023-05-19T08:18:13.495Z,101750.03
2023-05-19T08:19:16.266Z,101745.78
2023-05-19T08:20:18.707Z,101751.09
2023-05-19T08:21:21.689Z,101736.75
2023-05-19T08:22:24.222Z,101735.56
2023-05-19T08:23:26.510Z,101735.34
2023-05-19T08:24:34.022Z,101738.31
2023-05-19T08:25:36.313Z,101744.16
2023-05-19T08:26:38.535Z,101738.22
2023-05-19T08:27:40.981Z,101747.88
2023-05-19T08:28:44.260Z,101737.31
2023-05-19T08:29:46.541Z,101741.09
2023-05-19T08:30:51.564Z,101740.53
2023-05-19T08:31:54.287Z,101735.00
2023-05-19T08:32:56.537Z,101730.88
2023-05-19T08:33:59.009Z,101741.13
2023-05-19T08:35:01.505Z,101734.63
2023-05-19T08:36:03.984Z,101735.94
2023-05-19T08:37:07.064Z,101733.09
2023-05-19T08:38:09.301Z,101724.31
2023-05-19T08:39:12.290Z,101717.19
2023-05-19T08:40:18.358Z,101724.19
2023-05-19T08:41:21.744Z,101716.69
2023-05-19T08:42:24.173Z,101727.28
2023-05-19T08:43:26.541Z,101716.56
2023-05-19T08:44:31.077Z,101726.56
2023-05-19T08:45:38.619Z,101716.44
2023-05-19T08:46:41.287Z,101714.84
2023-05-19T08:47:46.307Z,101716.06
2023-05-19T08:48:48.645Z,101717.22
2023-05-19T08:49:53.805Z,101718.44
2023-05-19T08:51:05.896Z,101718.91
2023-05-19T08:52:42.343Z,101716.03
2023-05-19T08:53:50.503Z,101709.84
2023-05-19T08:55:34.531Z,101704.78
2023-05-19T08:56:39.106Z,101711.84
2023-05-19T08:57:41.903Z,101708.72
2023-05-19T08:58:46.061Z,101705.75
2023-05-19T08:59:51.378Z,101700.63
2023-05-19T09:00:56.097Z,101706.25
2023-05-19T09:01:58.948Z,101699.13
2023-05-19T09:03:17.446Z,101693.81
2023-05-19T09:04:20.910Z,101698.00
2023-05-19T09:05:24.260Z,101697.53
2023-05-19T09:06:27.200Z,101695.94
2023-05-19T09:07:34.823Z,101698.72
2023-05-19T09:08:37.335Z,101692.72
2023-05-19T09:09:43.447Z,101700.13
2023-05-19T09:10:46.127Z,101703.19
2023-05-19T09:11:48.742Z,101699.41
2023-05-19T09:12:51.524Z,101692.47
2023-05-19T09:13:54.212Z,101692.94
2023-05-19T09:14:56.779Z,101694.25
2023-05-19T09:16:00.191Z,101695.47
2023-05-19T09:17:02.696Z,101695.63
2023-05-19T09:18:13.539Z,101692.06
2023-05-19T09:19:16.076Z,101685.47
2023-05-19T09:20:18.654Z,101683.84
2023-05-19T09:21:20.936Z,101676.72
2023-05-19T09:22:25.471Z,101689.63
2023-05-19T09:23:37.482Z,101682.34
2023-05-19T09:24:40.697Z,101694.44
2023-05-19T09:25:53.487Z,101687.94
2023-05-19T09:27:00.407Z,101693.09
2023-05-19T09:28:03.079Z,101689.03
2023-05-19T09:29:17.077Z,101689.72
2023-05-19T09:30:19.901Z,101700.78
2023-05-19T09:31:22.730Z,101692.38
2023-05-19T09:32:29.594Z,101697.31
2023-05-19T09:33:41.015Z,101696.69
2023-05-19T09:34:44.424Z,101708.69
2023-05-19T09:35:47.491Z,101700.69
2023-05-19T09:36:53.502Z,101702.25
2023-05-19T09:37:56.497Z,101701.41
2023-05-19T09:38:58.938Z,101693.91
2023-05-19T09:40:01.224Z,101698.25
2023-05-19T09:41:07.827Z,101700.31
2023-05-19T09:42:10.067Z,101700.94
2023-05-19T09:43:12.744Z,101699.31
2023-05-19T09:44:21.132Z,101702.53
2023-05-19T09:45:23.366Z,101698.00
2023-05-19T09:46:28.773Z,101699.97
2023-05-19T09:47:38.826Z,101693.69
2023-05-19T09:48:41.030Z,101701.63
2023-05-19T09:49:47.357Z,101694.34
2023-05-19T09:50:51.878Z,101694.00
2023-05-19T09:51:54.857Z,101695.22
2023-05-19T09:52:57.859Z,101693.09
2023-05-19T09:54:00.206Z,101697.81
2023-05-19T09:55:04.901Z,101693.94
2023-05-19T09:56:09.964Z,101686.66
2023-05-19T09:57:12.711Z,101695.94
2023-05-19T09:58:21.660Z,101695.59
2023-05-19T09:59:25.384Z,101690.50
2023-05-19T10:00:28.733Z,101688.59
2023-05-19T10:01:33.913Z,101694.97
2023-05-19T10:02:36.768Z,101696.47
2023-05-19T10:03:40.459Z,101694.66
2023-05-19T10:04:43.048Z,101687.75
2023-05-19T10:05:47.612Z,101682.66
2023-05-19T10:06:54.457Z,101679.00
2023-05-19T10:07:56.742Z,101669.50
2023-05-19T10:09:00.229Z,101679.53
2023-05-19T10:10:03.296Z,101688.84
2023-05-19T10:11:06.530Z,101683.44
2023-05-19T10:12:11.210Z,101679.00
2023-05-19T10:13:13.898Z,101675.66
2023-05-19T10:14:18.313Z,101676.97
2023-05-19T10:15:22.930Z,101670.41
2023-05-19T10:16:27.856Z,101683.56
2023-05-19T10:17:30.972Z,101682.88
2023-05-19T10:18:33.663Z,101682.25
2023-05-19T10:19:37.236Z,101675.63
2023-05-19T10:20:40.325Z,101674.31
2023-05-19T10:21:42.742Z,101675.84
2023-05-19T10:22:46.679Z,101676.22
2023-05-19T10:23:49.246Z,101681.13
2023-05-19T10:24:51.633Z,101679.69
2023-05-19T10:26:00.134Z,101667.69
2023-05-19T10:27:10.394Z,101673.13
2023-05-19T10:28:16.850Z,101672.91
2023-05-19T10:29:25.251Z,101670.16
2023-05-19T10:30:33.302Z,101674.88
2023-05-19T10:31:36.861Z,101681.41
2023-05-19T10:32:41.581Z,101675.56
2023-05-19T10:34:08.490Z,101671.38
2023-05-19T10:35:28.211Z,101666.19
2023-05-19T10:36:50.453Z,101680.81
2023-05-19T10:38:11.394Z,101675.00
2023-05-19T10:39:22.365Z,101670.75
2023-05-19T10:40:30.253Z,101672.00
2023-05-19T10:41:53.771Z,101676.63
2023-05-19T10:43:28.458Z,101663.56
2023-05-19T10:45:05.574Z,101669.22
2023-05-19T10:46:07.843Z,101677.16
2023-05-19T10:47:12.130Z,101673.00
2023-05-19T10:48:16.757Z,101676.16
2023-05-19T10:49:22.782Z,101666.38
2023-05-19T10:50:26.094Z,101667.25
2023-05-19T10:51:32.305Z,101666.63
2023-05-19T10:52:38.953Z,101666.31
2023-05-19T10:53:46.457Z,101669.16
2023-05-19T10:54:48.914Z,101662.03
2023-05-19T10:55:53.462Z,101660.03
2023-05-19T10:56:57.713Z,101657.06
2023-05-19T10:58:00.709Z,101665.25
2023-05-19T10:59:03.651Z,101666.50
2023-05-19T11:00:30.175Z,101660.34
2023-05-19T11:01:34.252Z,101652.44
2023-05-19T11:02:44.208Z,101655.22
2023-05-19T11:03:57.647Z,101650.53
2023-05-19T11:05:12.999Z,101657.19
2023-05-19T11:06:32.023Z,101654.34
2023-05-19T11:07:34.475Z,101654.13
2023-05-19T11:08:37.019Z,101650.78
2023-05-19T11:09:43.164Z,101649.75
2023-05-19T11:10:48.390Z,101645.56
2023-05-19T11:11:52.441Z,101651.94
2023-05-19T11:14:01.499Z,101653.69
2023-05-19T11:15:03.944Z,101658.88
2023-05-19T11:16:09.940Z,101646.75
2023-05-19T11:17:16.352Z,101657.84
2023-05-19T11:18:19.547Z,101659.06
2023-05-19T11:19:33.405Z,101670.94
2023-05-19T11:20:39.168Z,101667.47
2023-05-19T11:21:52.636Z,101658.72
2023-05-19T11:23:21.835Z,101666.31
2023-05-19T11:24:44.742Z,101666.13
2023-05-19T11:25:53.930Z,101657.59
2023-05-19T11:26:57.316Z,101668.13
2023-05-19T11:28:00.297Z,101671.75
2023-05-19T11:29:02.941Z,101668.44
2023-05-19T11:30:09.464Z,101662.88
2023-05-19T11:31:12.156Z,101655.59
2023-05-19T11:32:15.639Z,101658.13
2023-05-19T11:33:19.618Z,101656.50
2023-05-19T11:34:25.958Z,101659.44
2023-05-19T11:35:30.696Z,101664.16
2023-05-19T11:36:34.496Z,101646.38
2023-05-19T11:37:37.034Z,101661.97
2023-05-19T11:38:39.485Z,101661.50
2023-05-19T11:39:42.141Z,101666.00
2023-05-19T11:40:44.869Z,101664.00
2023-05-19T11:41:47.112Z,101664.09
2023-05-19T11:42:49.341Z,101670.09
2023-05-19T11:43:51.789Z,101662.81
2023-05-19T11:44:56.862Z,101664.72
2023-05-19T11:45:59.737Z,101658.06
2023-05-19T11:47:02.119Z,101666.91
2023-05-19T11:48:05.629Z,101659.81
2023-05-19T11:49:09.257Z,101660.09
2023-05-19T11:50:12.795Z,101667.25
2023-05-19T11:51:16.663Z,101662.81
2023-05-19T11:52:27.402Z,101664.53
2023-05-19T11:53:33.265Z,101672.06
2023-05-19T11:54:37.365Z,101670.94
2023-05-19T11:55:47.357Z,101669.88
2023-05-19T11:56:50.017Z,101665.97
2023-05-19T11:59:04.874Z,101670.63
2023-05-19T12:00:08.284Z,101666.91
2023-05-19T12:01:11.361Z,101669.69
2023-05-19T12:02:16.386Z,101664.44
2023-05-19T12:03:22.147Z,101658.38
2023-05-19T12:04:24.471Z,101660.88
2023-05-19T12:05:28.308Z,101660.19
2023-05-19T12:06:31.313Z,101654.44
2023-05-19T12:07:33.757Z,101658.31
2023-05-19T12:08:36.682Z,101649.66
2023-05-19T12:09:39.192Z,101650.00
2023-05-19T12:10:41.818Z,101644.13
2023-05-19T12:11:44.349Z,101640.09
2023-05-19T12:12:46.678Z,101642.56
2023-05-19T12:13:50.901Z,101658.00
2023-05-19T12:14:54.077Z,101650.44
2023-05-19T12:16:00.618Z,101648.28
2023-05-19T12:17:16.616Z,101638.09
2023-05-19T12:18:19.438Z,101642.28
2023-05-19T12:19:26.139Z,101641.88
2023-05-19T12:20:32.587Z,101652.19
2023-05-19T12:21:36.069Z,101648.22
2023-05-19T12:22:38.682Z,101644.50
2023-05-19T12:23:41.793Z,101642.91
2023-05-19T12:24:45.235Z,101637.28